sensor_id;sensor_type;location;lat;lon;timestamp;P1;durP1;ratioP1;P2;durP2;ratioP2
37087;SDS011;23002;52.676;6.432;2023-05-10T00:01:35;17.55;;;8.88;;
37087;SDS011;23002;52.676;6.432;2023-05-10T00:04:03;19.13;;;8.77;;
37087;SDS011;23002;52.676;6.432;2023-05-10T00:06:30;16.27;;;9.02;;
37087;SDS011;23002;52.676;6.432;2023-05-10T00:08:57;19.58;;;9.85;;
37087;SDS011;23002;52.676;6.432;2023-05-10T00:11:24;19.38;;;9.60;;
37087;SDS011;23002;52.676;6.432;2023-05-10T00:13:51;18.17;;;9.85;;
37087;SDS011;23002;52.676;6.432;2023-05-10T00:16:19;18.95;;;9.43;;
37087;SDS011;23002;52.676;6.432;2023-05-10T00:18:46;22.13;;;9.73;;
37087;SDS011;23002;52.676;6.432;2023-05-10T00:21:13;16.77;;;9.02;;
37087;SDS011;23002;52.676;6.432;2023-05-10T00:23:40;18.67;;;9.80;;
37087;SDS011;23002;52.676;6.432;2023-05-10T00:26:07;20.17;;;9.98;;
37087;SDS011;23002;52.676;6.432;2023-05-10T00:28:34;20.15;;;8.82;;
37087;SDS011;23002;52.676;6.432;2023-05-10T00:31:01;18.98;;;9.10;;
37087;SDS011;23002;52.676;6.432;2023-05-10T00:33:28;18.25;;;9.27;;
37087;SDS011;23002;52.676;6.432;2023-05-10T00:35:55;18.65;;;9.18;;
37087;SDS011;23002;52.676;6.432;2023-05-10T00:38:22;18.48;;;9.63;;
37087;SDS011;23002;52.676;6.432;2023-05-10T00:40:49;17.88;;;8.70;;
37087;SDS011;23002;52.676;6.432;2023-05-10T00:43:16;20.35;;;9.13;;
37087;SDS011;23002;52.676;6.432;2023-05-10T00:45:43;17.13;;;8.15;;
37087;SDS011;23002;52.676;6.432;2023-05-10T00:48:11;19.83;;;9.50;;
37087;SDS011;23002;52.676;6.432;2023-05-10T00:50:38;18.85;;;8.20;;
37087;SDS011;23002;52.676;6.432;2023-05-10T00:53:06;16.85;;;8.25;;
37087;SDS011;23002;52.676;6.432;2023-05-10T00:55:34;17.50;;;8.50;;
37087;SDS011;23002;52.676;6.432;2023-05-10T00:58:01;19.23;;;7.88;;
37087;SDS011;23002;52.676;6.432;2023-05-10T01:00:28;15.80;;;7.57;;
37087;SDS011;23002;52.676;6.432;2023-05-10T01:02:55;15.45;;;8.18;;
37087;SDS011;23002;52.676;6.432;2023-05-10T01:05:23;17.02;;;7.95;;
37087;SDS011;23002;52.676;6.432;2023-05-10T01:07:50;14.90;;;7.57;;
37087;SDS011;23002;52.676;6.432;2023-05-10T01:10:17;15.02;;;7.30;;
37087;SDS011;23002;52.676;6.432;2023-05-10T01:12:45;14.23;;;7.10;;
37087;SDS011;23002;52.676;6.432;2023-05-10T01:15:13;15.48;;;6.45;;
37087;SDS011;23002;52.676;6.432;2023-05-10T01:17:42;1.23;;;1.00;;
37087;SDS011;23002;52.676;6.432;2023-05-10T01:20:11;0.75;;;0.75;;
37087;SDS011;23002;52.676;6.432;2023-05-10T01:22:46;0.17;;;0.17;;
37087;SDS011;23002;52.676;6.432;2023-05-10T01:33:47;0.30;;;0.30;;
37087;SDS011;23002;52.676;6.432;2023-05-10T01:35:51;0.55;;;0.55;;
37087;SDS011;23002;52.676;6.432;2023-05-10T01:38:33;0.20;;;0.20;;
37087;SDS011;23002;52.676;6.432;2023-05-10T01:46:17;0.80;;;0.32;;
37087;SDS011;23002;52.676;6.432;2023-05-10T01:48:47;0.95;;;0.95;;
37087;SDS011;23002;52.676;6.432;2023-05-10T01:51:16;0.47;;;0.35;;
37087;SDS011;23002;52.676;6.432;2023-05-10T01:53:44;0.20;;;0.20;;
37087;SDS011;23002;52.676;6.432;2023-05-10T01:56:13;0.10;;;0.10;;
37087;SDS011;23002;52.676;6.432;2023-05-10T01:58:41;0.88;;;0.45;;
37087;SDS011;23002;52.676;6.432;2023-05-10T02:01:11;0.50;;;0.50;;
37087;SDS011;23002;52.676;6.432;2023-05-10T02:03:39;0.50;;;0.50;;
37087;SDS011;23002;52.676;6.432;2023-05-10T02:06:08;0.50;;;0.50;;
37087;SDS011;23002;52.676;6.432;2023-05-10T02:08:36;0.10;;;0.10;;
37087;SDS011;23002;52.676;6.432;2023-05-10T02:11:03;0.80;;;0.80;;
37087;SDS011;23002;52.676;6.432;2023-05-10T02:13:31;0.90;;;0.40;;
37087;SDS011;23002;52.676;6.432;2023-05-10T02:16:00;0.30;;;0.30;;
37087;SDS011;23002;52.676;6.432;2023-05-10T02:18:28;0.52;;;0.52;;
37087;SDS011;23002;52.676;6.432;2023-05-10T02:20:57;0.10;;;0.10;;
37087;SDS011;23002;52.676;6.432;2023-05-10T02:23:24;0.00;;;0.00;;
37087;SDS011;23002;52.676;6.432;2023-05-10T02:25:52;0.40;;;0.40;;
37087;SDS011;23002;52.676;6.432;2023-05-10T02:28:21;0.63;;;0.30;;
37087;SDS011;23002;52.676;6.432;2023-05-10T02:30:48;0.35;;;0.35;;
37087;SDS011;23002;52.676;6.432;2023-05-10T02:33:16;0.57;;;0.55;;
37087;SDS011;23002;52.676;6.432;2023-05-10T02:35:43;0.40;;;0.40;;
37087;SDS011;23002;52.676;6.432;2023-05-10T02:38:11;0.57;;;0.50;;
37087;SDS011;23002;52.676;6.432;2023-05-10T02:40:38;0.30;;;0.30;;
37087;SDS011;23002;52.676;6.432;2023-05-10T02:43:08;0.40;;;0.40;;
37087;SDS011;23002;52.676;6.432;2023-05-10T02:45:36;0.40;;;0.40;;
37087;SDS011;23002;52.676;6.432;2023-05-10T02:48:05;0.43;;;0.40;;
37087;SDS011;23002;52.676;6.432;2023-05-10T02:50:32;0.63;;;0.63;;
37087;SDS011;23002;52.676;6.432;2023-05-10T02:53:00;0.77;;;0.20;;
37087;SDS011;23002;52.676;6.432;2023-05-10T02:55:31;0.40;;;0.40;;
37087;SDS011;23002;52.676;6.432;2023-05-10T02:58:00;0.20;;;0.20;;
37087;SDS011;23002;52.676;6.432;2023-05-10T03:00:27;0.10;;;0.10;;
37087;SDS011;23002;52.676;6.432;2023-05-10T03:02:54;0.10;;;0.10;;
37087;SDS011;23002;52.676;6.432;2023-05-10T03:05:22;0.55;;;0.55;;
37087;SDS011;23002;52.676;6.432;2023-05-10T03:07:49;0.40;;;0.40;;
37087;SDS011;23002;52.676;6.432;2023-05-10T03:10:17;0.38;;;0.38;;
37087;SDS011;23002;52.676;6.432;2023-05-10T03:13:04;2.42;;;0.38;;
37087;SDS011;23002;52.676;6.432;2023-05-10T03:18:05;0.32;;;0.32;;
37087;SDS011;23002;52.676;6.432;2023-05-10T03:20:43;0.35;;;0.35;;
37087;SDS011;23002;52.676;6.432;2023-05-10T03:25:40;0.77;;;0.70;;
37087;SDS011;23002;52.676;6.432;2023-05-10T03:28:09;0.50;;;0.50;;
37087;SDS011;23002;52.676;6.432;2023-05-10T03:30:36;0.82;;;0.60;;
37087;SDS011;23002;52.676;6.432;2023-05-10T03:33:06;0.32;;;0.32;;
37087;SDS011;23002;52.676;6.432;2023-05-10T03:35:34;0.60;;;0.60;;
37087;SDS011;23002;52.676;6.432;2023-05-10T03:38:01;0.73;;;0.73;;
37087;SDS011;23002;52.676;6.432;2023-05-10T03:40:28;0.75;;;0.50;;
37087;SDS011;23002;52.676;6.432;2023-05-10T03:42:58;0.35;;;0.35;;
37087;SDS011;23002;52.676;6.432;2023-05-10T03:45:25;0.20;;;0.20;;
37087;SDS011;23002;52.676;6.432;2023-05-10T03:47:52;0.38;;;0.38;;
37087;SDS011;23002;52.676;6.432;2023-05-10T03:50:20;0.17;;;0.17;;
37087;SDS011;23002;52.676;6.432;2023-05-10T03:52:47;0.77;;;0.57;;
37087;SDS011;23002;52.676;6.432;2023-05-10T03:55:14;1.60;;;0.90;;
37087;SDS011;23002;52.676;6.432;2023-05-10T03:57:42;0.85;;;0.85;;
37087;SDS011;23002;52.676;6.432;2023-05-10T04:00:09;2.28;;;0.90;;
37087;SDS011;23002;52.676;6.432;2023-05-10T04:02:37;0.10;;;0.10;;
37087;SDS011;23002;52.676;6.432;2023-05-10T04:05:04;0.10;;;0.10;;
37087;SDS011;23002;52.676;6.432;2023-05-10T04:07:32;0.35;;;0.35;;
37087;SDS011;23002;52.676;6.432;2023-05-10T04:09:59;0.50;;;0.50;;
37087;SDS011;23002;52.676;6.432;2023-05-10T04:12:26;0.50;;;0.50;;
37087;SDS011;23002;52.676;6.432;2023-05-10T04:14:53;0.20;;;0.20;;
37087;SDS011;23002;52.676;6.432;2023-05-10T04:17:20;1.75;;;1.00;;
37087;SDS011;23002;52.676;6.432;2023-05-10T04:19:47;0.35;;;0.35;;
37087;SDS011;23002;52.676;6.432;2023-05-10T04:22:14;1.00;;;1.00;;
37087;SDS011;23002;52.676;6.432;2023-05-10T04:24:42;0.08;;;0.08;;
37087;SDS011;23002;52.676;6.432;2023-05-10T04:27:09;0.40;;;0.40;;
37087;SDS011;23002;52.676;6.432;2023-05-10T04:29:37;0.22;;;0.22;;
37087;SDS011;23002;52.676;6.432;2023-05-10T04:32:04;0.25;;;0.25;;
37087;SDS011;23002;52.676;6.432;2023-05-10T04:34:31;0.47;;;0.47;;
37087;SDS011;23002;52.676;6.432;2023-05-10T04:37:00;1.00;;;0.85;;
37087;SDS011;23002;52.676;6.432;2023-05-10T04:39:27;1.80;;;1.30;;
37087;SDS011;23002;52.676;6.432;2023-05-10T04:41:54;0.30;;;0.30;;
37087;SDS011;23002;52.676;6.432;2023-05-10T04:44:21;0.10;;;0.10;;
37087;SDS011;23002;52.676;6.432;2023-05-10T04:46:48;0.43;;;0.43;;
37087;SDS011;23002;52.676;6.432;2023-05-10T04:49:15;0.20;;;0.20;;
37087;SDS011;23002;52.676;6.432;2023-05-10T04:51:43;0.80;;;0.70;;
37087;SDS011;23002;52.676;6.432;2023-05-10T04:54:11;0.63;;;0.63;;
37087;SDS011;23002;52.676;6.432;2023-05-10T04:56:38;0.30;;;0.30;;
37087;SDS011;23002;52.676;6.432;2023-05-10T04:59:05;1.17;;;1.13;;
37087;SDS011;23002;52.676;6.432;2023-05-10T05:01:32;0.28;;;0.28;;
37087;SDS011;23002;52.676;6.432;2023-05-10T05:03:59;0.15;;;0.15;;
37087;SDS011;23002;52.676;6.432;2023-05-10T05:06:27;0.10;;;0.10;;
37087;SDS011;23002;52.676;6.432;2023-05-10T05:08:54;1.45;;;1.08;;
37087;SDS011;23002;52.676;6.432;2023-05-10T05:11:21;3.83;;;0.90;;
37087;SDS011;23002;52.676;6.432;2023-05-10T05:13:49;0.55;;;0.55;;
37087;SDS011;23002;52.676;6.432;2023-05-10T05:16:16;1.67;;;0.73;;
37087;SDS011;23002;52.676;6.432;2023-05-10T05:18:43;0.55;;;0.30;;
37087;SDS011;23002;52.676;6.432;2023-05-10T05:21:16;0.68;;;0.68;;
37087;SDS011;23002;52.676;6.432;2023-05-10T05:23:44;0.35;;;0.35;;
37087;SDS011;23002;52.676;6.432;2023-05-10T05:26:11;0.82;;;0.73;;
37087;SDS011;23002;52.676;6.432;2023-05-10T05:28:38;1.38;;;1.27;;
37087;SDS011;23002;52.676;6.432;2023-05-10T05:31:06;0.45;;;0.38;;
37087;SDS011;23002;52.676;6.432;2023-05-10T05:33:34;0.30;;;0.30;;
37087;SDS011;23002;52.676;6.432;2023-05-10T05:36:01;2.03;;;0.88;;
37087;SDS011;23002;52.676;6.432;2023-05-10T05:38:29;0.28;;;0.28;;
37087;SDS011;23002;52.676;6.432;2023-05-10T05:40:56;0.15;;;0.15;;
37087;SDS011;23002;52.676;6.432;2023-05-10T05:43:23;2.17;;;1.13;;
37087;SDS011;23002;52.676;6.432;2023-05-10T05:45:51;0.80;;;0.80;;
37087;SDS011;23002;52.676;6.432;2023-05-10T05:48:24;0.45;;;0.45;;
37087;SDS011;23002;52.676;6.432;2023-05-10T05:50:54;0.22;;;0.22;;
37087;SDS011;23002;52.676;6.432;2023-05-10T05:53:23;0.82;;;0.80;;
37087;SDS011;23002;52.676;6.432;2023-05-10T05:55:50;0.55;;;0.52;;
37087;SDS011;23002;52.676;6.432;2023-05-10T05:58:18;2.72;;;1.42;;
37087;SDS011;23002;52.676;6.432;2023-05-10T06:00:45;2.22;;;0.70;;
37087;SDS011;23002;52.676;6.432;2023-05-10T06:03:12;0.70;;;0.70;;
37087;SDS011;23002;52.676;6.432;2023-05-10T06:05:39;0.25;;;0.25;;
37087;SDS011;23002;52.676;6.432;2023-05-10T06:08:07;0.55;;;0.55;;
37087;SDS011;23002;52.676;6.432;2023-05-10T06:10:34;0.65;;;0.52;;
37087;SDS011;23002;52.676;6.432;2023-05-10T06:13:01;0.35;;;0.35;;
37087;SDS011;23002;52.676;6.432;2023-05-10T06:15:28;0.50;;;0.50;;
37087;SDS011;23002;52.676;6.432;2023-05-10T06:17:55;0.38;;;0.30;;
37087;SDS011;23002;52.676;6.432;2023-05-10T06:20:22;0.35;;;0.35;;
37087;SDS011;23002;52.676;6.432;2023-05-10T06:22:49;0.40;;;0.40;;
37087;SDS011;23002;52.676;6.432;2023-05-10T06:25:16;0.10;;;0.10;;
37087;SDS011;23002;52.676;6.432;2023-05-10T06:27:44;0.10;;;0.10;;
37087;SDS011;23002;52.676;6.432;2023-05-10T06:30:17;0.93;;;0.45;;
37087;SDS011;23002;52.676;6.432;2023-05-10T06:32:44;4.72;;;1.05;;
37087;SDS011;23002;52.676;6.432;2023-05-10T06:35:12;0.85;;;0.82;;
37087;SDS011;23002;52.676;6.432;2023-05-10T06:37:39;1.95;;;0.77;;
37087;SDS011;23002;52.676;6.432;2023-05-10T06:40:06;1.77;;;0.55;;
37087;SDS011;23002;52.676;6.432;2023-05-10T06:42:33;0.43;;;0.43;;
37087;SDS011;23002;52.676;6.432;2023-05-10T06:45:01;0.60;;;0.60;;
37087;SDS011;23002;52.676;6.432;2023-05-10T06:47:28;1.30;;;0.88;;
37087;SDS011;23002;52.676;6.432;2023-05-10T06:49:55;0.20;;;0.20;;
37087;SDS011;23002;52.676;6.432;2023-05-10T06:52:22;0.75;;;0.50;;
37087;SDS011;23002;52.676;6.432;2023-05-10T06:54:49;0.25;;;0.25;;
37087;SDS011;23002;52.676;6.432;2023-05-10T06:57:16;0.40;;;0.40;;
37087;SDS011;23002;52.676;6.432;2023-05-10T06:59:56;0.10;;;0.10;;
37087;SDS011;23002;52.676;6.432;2023-05-10T07:02:24;0.43;;;0.40;;
37087;SDS011;23002;52.676;6.432;2023-05-10T07:04:51;0.10;;;0.10;;
37087;SDS011;23002;52.676;6.432;2023-05-10T07:07:18;0.13;;;0.13;;
37087;SDS011;23002;52.676;6.432;2023-05-10T07:09:45;0.40;;;0.40;;
37087;SDS011;23002;52.676;6.432;2023-05-10T07:12:13;0.52;;;0.40;;
37087;SDS011;23002;52.676;6.432;2023-05-10T07:14:41;0.30;;;0.30;;
37087;SDS011;23002;52.676;6.432;2023-05-10T07:17:08;0.63;;;0.63;;
37087;SDS011;23002;52.676;6.432;2023-05-10T07:19:36;0.43;;;0.43;;
37087;SDS011;23002;52.676;6.432;2023-05-10T07:22:03;0.35;;;0.35;;
37087;SDS011;23002;52.676;6.432;2023-05-10T07:24:31;2.40;;;0.85;;
37087;SDS011;23002;52.676;6.432;2023-05-10T07:26:58;0.25;;;0.25;;
37087;SDS011;23002;52.676;6.432;2023-05-10T07:29:25;0.68;;;0.60;;
37087;SDS011;23002;52.676;6.432;2023-05-10T07:31:52;0.43;;;0.43;;
37087;SDS011;23002;52.676;6.432;2023-05-10T07:34:23;1.70;;;0.70;;
37087;SDS011;23002;52.676;6.432;2023-05-10T07:36:51;0.32;;;0.32;;
37087;SDS011;23002;52.676;6.432;2023-05-10T07:39:18;0.40;;;0.40;;
37087;SDS011;23002;52.676;6.432;2023-05-10T07:41:53;0.85;;;0.85;;
37087;SDS011;23002;52.676;6.432;2023-05-10T07:44:20;0.15;;;0.15;;
37087;SDS011;23002;52.676;6.432;2023-05-10T07:46:47;0.13;;;0.13;;
37087;SDS011;23002;52.676;6.432;2023-05-10T07:49:15;0.15;;;0.15;;
37087;SDS011;23002;52.676;6.432;2023-05-10T07:51:42;0.20;;;0.20;;
37087;SDS011;23002;52.676;6.432;2023-05-10T07:54:09;0.70;;;0.63;;
37087;SDS011;23002;52.676;6.432;2023-05-10T07:56:36;0.65;;;0.65;;
37087;SDS011;23002;52.676;6.432;2023-05-10T07:59:04;4.07;;;0.50;;
37087;SDS011;23002;52.676;6.432;2023-05-10T08:01:34;0.32;;;0.32;;
37087;SDS011;23002;52.676;6.432;2023-05-10T08:04:01;0.50;;;0.50;;
37087;SDS011;23002;52.676;6.432;2023-05-10T08:06:29;0.10;;;0.10;;
37087;SDS011;23002;52.676;6.432;2023-05-10T08:08:56;0.98;;;0.57;;
37087;SDS011;23002;52.676;6.432;2023-05-10T08:11:23;0.10;;;0.10;;
37087;SDS011;23002;52.676;6.432;2023-05-10T08:13:51;0.98;;;0.85;;
37087;SDS011;23002;52.676;6.432;2023-05-10T08:16:19;0.75;;;0.60;;
37087;SDS011;23002;52.676;6.432;2023-05-10T08:18:46;0.20;;;0.20;;
37087;SDS011;23002;52.676;6.432;2023-05-10T08:21:15;0.47;;;0.47;;
37087;SDS011;23002;52.676;6.432;2023-05-10T08:23:42;0.47;;;0.38;;
37087;SDS011;23002;52.676;6.432;2023-05-10T08:26:12;0.30;;;0.30;;
37087;SDS011;23002;52.676;6.432;2023-05-10T08:28:39;0.65;;;0.20;;
37087;SDS011;23002;52.676;6.432;2023-05-10T08:31:06;0.00;;;0.00;;
37087;SDS011;23002;52.676;6.432;2023-05-10T08:33:33;0.30;;;0.30;;
37087;SDS011;23002;52.676;6.432;2023-05-10T08:36:01;0.00;;;0.00;;
37087;SDS011;23002;52.676;6.432;2023-05-10T08:38:28;0.08;;;0.08;;
37087;SDS011;23002;52.676;6.432;2023-05-10T08:40:55;0.30;;;0.30;;
37087;SDS011;23002;52.676;6.432;2023-05-10T08:43:23;0.00;;;0.00;;
37087;SDS011;23002;52.676;6.432;2023-05-10T08:45:53;0.03;;;0.03;;
37087;SDS011;23002;52.676;6.432;2023-05-10T08:48:22;0.10;;;0.10;;
37087;SDS011;23002;52.676;6.432;2023-05-10T08:50:50;0.28;;;0.28;;
37087;SDS011;23002;52.676;6.432;2023-05-10T08:53:19;0.22;;;0.20;;
37087;SDS011;23002;52.676;6.432;2023-05-10T08:55:47;0.13;;;0.10;;
37087;SDS011;23002;52.676;6.432;2023-05-10T08:58:14;0.35;;;0.30;;
37087;SDS011;23002;52.676;6.432;2023-05-10T09:00:41;0.10;;;0.10;;
37087;SDS011;23002;52.676;6.432;2023-05-10T09:03:09;0.10;;;0.10;;
37087;SDS011;23002;52.676;6.432;2023-05-10T09:05:36;0.10;;;0.10;;
37087;SDS011;23002;52.676;6.432;2023-05-10T09:08:05;0.10;;;0.10;;
37087;SDS011;23002;52.676;6.432;2023-05-10T09:10:32;0.40;;;0.10;;
37087;SDS011;23002;52.676;6.432;2023-05-10T09:13:00;0.65;;;0.20;;
37087;SDS011;23002;52.676;6.432;2023-05-10T09:15:27;0.45;;;0.45;;
37087;SDS011;23002;52.676;6.432;2023-05-10T09:17:54;2.33;;;1.27;;
37087;SDS011;23002;52.676;6.432;2023-05-10T09:20:22;2.97;;;1.70;;
37087;SDS011;23002;52.676;6.432;2023-05-10T09:22:49;3.63;;;1.85;;
37087;SDS011;23002;52.676;6.432;2023-05-10T09:25:17;3.10;;;1.23;;
37087;SDS011;23002;52.676;6.432;2023-05-10T09:27:45;4.20;;;1.67;;
37087;SDS011;23002;52.676;6.432;2023-05-10T09:30:15;3.08;;;1.35;;
37087;SDS011;23002;52.676;6.432;2023-05-10T09:32:43;3.42;;;1.67;;
37087;SDS011;23002;52.676;6.432;2023-05-10T09:37:42;3.17;;;1.70;;
37087;SDS011;23002;52.676;6.432;2023-05-10T09:40:13;3.00;;;1.52;;
37087;SDS011;23002;52.676;6.432;2023-05-10T09:42:57;3.80;;;1.90;;
37087;SDS011;23002;52.676;6.432;2023-05-10T09:45:32;3.78;;;1.77;;
37087;SDS011;23002;52.676;6.432;2023-05-10T09:48:03;5.13;;;2.00;;
37087;SDS011;23002;52.676;6.432;2023-05-10T09:50:30;3.97;;;2.13;;
37087;SDS011;23002;52.676;6.432;2023-05-10T09:52:58;5.15;;;2.42;;
37087;SDS011;23002;52.676;6.432;2023-05-10T09:55:37;5.75;;;2.30;;
37087;SDS011;23002;52.676;6.432;2023-05-10T09:58:05;4.90;;;2.25;;
37087;SDS011;23002;52.676;6.432;2023-05-10T10:00:37;4.07;;;2.08;;
37087;SDS011;23002;52.676;6.432;2023-05-10T10:03:05;5.43;;;2.63;;
37087;SDS011;23002;52.676;6.432;2023-05-10T10:05:33;6.70;;;2.70;;
37087;SDS011;23002;52.676;6.432;2023-05-10T10:08:01;5.28;;;2.55;;
37087;SDS011;23002;52.676;6.432;2023-05-10T10:10:29;6.13;;;2.72;;
37087;SDS011;23002;52.676;6.432;2023-05-10T10:12:57;5.47;;;2.75;;
37087;SDS011;23002;52.676;6.432;2023-05-10T10:15:25;6.32;;;2.95;;
37087;SDS011;23002;52.676;6.432;2023-05-10T10:17:53;5.40;;;3.05;;
37087;SDS011;23002;52.676;6.432;2023-05-10T10:20:22;6.55;;;2.85;;
37087;SDS011;23002;52.676;6.432;2023-05-10T10:22:50;6.80;;;2.90;;
37087;SDS011;23002;52.676;6.432;2023-05-10T10:25:17;8.23;;;3.22;;
37087;SDS011;23002;52.676;6.432;2023-05-10T10:35:18;8.90;;;3.05;;
37087;SDS011;23002;52.676;6.432;2023-05-10T10:37:47;6.07;;;2.90;;
37087;SDS011;23002;52.676;6.432;2023-05-10T10:40:27;5.88;;;3.33;;
37087;SDS011;23002;52.676;6.432;2023-05-10T10:43:20;6.72;;;3.20;;
37087;SDS011;23002;52.676;6.432;2023-05-10T10:45:48;5.93;;;3.00;;
37087;SDS011;23002;52.676;6.432;2023-05-10T10:48:33;5.40;;;3.25;;
37087;SDS011;23002;52.676;6.432;2023-05-10T10:51:00;5.63;;;2.60;;
37087;SDS011;23002;52.676;6.432;2023-05-10T10:53:27;7.88;;;3.70;;
37087;SDS011;23002;52.676;6.432;2023-05-10T10:56:07;6.03;;;2.97;;
37087;SDS011;23002;52.676;6.432;2023-05-10T10:58:36;6.25;;;3.00;;
37087;SDS011;23002;52.676;6.432;2023-05-10T11:01:14;7.32;;;3.20;;
37087;SDS011;23002;52.676;6.432;2023-05-10T11:03:54;5.85;;;3.22;;
37087;SDS011;23002;52.676;6.432;2023-05-10T11:06:28;6.85;;;3.00;;
37087;SDS011;23002;52.676;6.432;2023-05-10T11:08:57;7.30;;;3.15;;
37087;SDS011;23002;52.676;6.432;2023-05-10T11:11:25;6.55;;;3.30;;
37087;SDS011;23002;52.676;6.432;2023-05-10T11:13:52;7.88;;;3.78;;
37087;SDS011;23002;52.676;6.432;2023-05-10T11:19:03;6.60;;;3.42;;
37087;SDS011;23002;52.676;6.432;2023-05-10T11:21:31;8.60;;;4.40;;
37087;SDS011;23002;52.676;6.432;2023-05-10T11:23:59;8.85;;;3.92;;
37087;SDS011;23002;52.676;6.432;2023-05-10T11:26:30;8.52;;;4.03;;
37087;SDS011;23002;52.676;6.432;2023-05-10T11:28:57;7.40;;;3.90;;
37087;SDS011;23002;52.676;6.432;2023-05-10T11:31:27;8.80;;;3.80;;
37087;SDS011;23002;52.676;6.432;2023-05-10T11:33:56;6.95;;;3.65;;
37087;SDS011;23002;52.676;6.432;2023-05-10T11:38:51;8.32;;;4.28;;
37087;SDS011;23002;52.676;6.432;2023-05-10T11:41:19;7.68;;;3.78;;
37087;SDS011;23002;52.676;6.432;2023-05-10T11:43:49;8.60;;;4.28;;
37087;SDS011;23002;52.676;6.432;2023-05-10T11:46:18;8.75;;;4.70;;
37087;SDS011;23002;52.676;6.432;2023-05-10T11:48:47;8.20;;;4.30;;
37087;SDS011;23002;52.676;6.432;2023-05-10T11:51:19;7.45;;;4.25;;
37087;SDS011;23002;52.676;6.432;2023-05-10T11:53:47;9.17;;;4.27;;
37087;SDS011;23002;52.676;6.432;2023-05-10T11:56:16;8.55;;;4.20;;
37087;SDS011;23002;52.676;6.432;2023-05-10T11:58:43;8.23;;;4.57;;
37087;SDS011;23002;52.676;6.432;2023-05-10T12:01:11;11.40;;;5.72;;
37087;SDS011;23002;52.676;6.432;2023-05-10T12:03:38;8.02;;;4.13;;
37087;SDS011;23002;52.676;6.432;2023-05-10T12:06:06;8.55;;;4.68;;
37087;SDS011;23002;52.676;6.432;2023-05-10T12:08:34;8.70;;;4.20;;
37087;SDS011;23002;52.676;6.432;2023-05-10T12:11:05;11.40;;;5.13;;
37087;SDS011;23002;52.676;6.432;2023-05-10T12:13:36;8.77;;;4.60;;
37087;SDS011;23002;52.676;6.432;2023-05-10T12:18:41;8.35;;;4.43;;
37087;SDS011;23002;52.676;6.432;2023-05-10T12:21:11;9.23;;;4.35;;
37087;SDS011;23002;52.676;6.432;2023-05-10T12:23:39;9.02;;;4.50;;
37087;SDS011;23002;52.676;6.432;2023-05-10T12:26:08;8.52;;;5.15;;
37087;SDS011;23002;52.676;6.432;2023-05-10T12:28:36;7.32;;;3.80;;
37087;SDS011;23002;52.676;6.432;2023-05-10T12:31:03;7.10;;;3.95;;
37087;SDS011;23002;52.676;6.432;2023-05-10T12:33:43;7.60;;;4.40;;
37087;SDS011;23002;52.676;6.432;2023-05-10T12:36:12;7.68;;;4.43;;
37087;SDS011;23002;52.676;6.432;2023-05-10T12:38:42;7.65;;;4.30;;
37087;SDS011;23002;52.676;6.432;2023-05-10T12:41:11;8.13;;;4.13;;
37087;SDS011;23002;52.676;6.432;2023-05-10T12:43:38;10.48;;;4.47;;
37087;SDS011;23002;52.676;6.432;2023-05-10T12:48:34;7.70;;;4.05;;
37087;SDS011;23002;52.676;6.432;2023-05-10T12:51:01;8.35;;;3.97;;
37087;SDS011;23002;52.676;6.432;2023-05-10T12:53:29;9.13;;;4.45;;
37087;SDS011;23002;52.676;6.432;2023-05-10T12:55:56;9.82;;;4.05;;
37087;SDS011;23002;52.676;6.432;2023-05-10T12:58:23;6.95;;;3.58;;
37087;SDS011;23002;52.676;6.432;2023-05-10T13:01:01;7.47;;;4.15;;
37087;SDS011;23002;52.676;6.432;2023-05-10T13:03:29;10.05;;;4.28;;
37087;SDS011;23002;52.676;6.432;2023-05-10T13:05:56;6.97;;;3.85;;
37087;SDS011;23002;52.676;6.432;2023-05-10T13:08:23;7.30;;;3.90;;
37087;SDS011;23002;52.676;6.432;2023-05-10T13:10:51;6.45;;;3.65;;
37087;SDS011;23002;52.676;6.432;2023-05-10T13:13:18;7.88;;;3.70;;
37087;SDS011;23002;52.676;6.432;2023-05-10T13:15:45;8.77;;;4.82;;
37087;SDS011;23002;52.676;6.432;2023-05-10T13:18:12;11.35;;;4.60;;
37087;SDS011;23002;52.676;6.432;2023-05-10T13:20:39;8.95;;;4.50;;
37087;SDS011;23002;52.676;6.432;2023-05-10T13:23:07;8.38;;;4.30;;
37087;SDS011;23002;52.676;6.432;2023-05-10T13:25:34;8.55;;;4.30;;
37087;SDS011;23002;52.676;6.432;2023-05-10T13:28:01;12.27;;;4.63;;
37087;SDS011;23002;52.676;6.432;2023-05-10T13:30:29;7.50;;;3.72;;
37087;SDS011;23002;52.676;6.432;2023-05-10T13:32:56;7.47;;;3.80;;
37087;SDS011;23002;52.676;6.432;2023-05-10T13:35:23;10.82;;;4.03;;
37087;SDS011;23002;52.676;6.432;2023-05-10T13:37:51;7.18;;;3.80;;
37087;SDS011;23002;52.676;6.432;2023-05-10T13:40:19;8.15;;;3.67;;
37087;SDS011;23002;52.676;6.432;2023-05-10T13:42:46;7.18;;;3.60;;
37087;SDS011;23002;52.676;6.432;2023-05-10T13:45:13;7.93;;;3.90;;
37087;SDS011;23002;52.676;6.432;2023-05-10T13:47:41;7.32;;;3.95;;
37087;SDS011;23002;52.676;6.432;2023-05-10T13:50:08;7.78;;;3.70;;
37087;SDS011;23002;52.676;6.432;2023-05-10T13:52:35;10.60;;;4.05;;
37087;SDS011;23002;52.676;6.432;2023-05-10T13:55:03;6.88;;;3.72;;
37087;SDS011;23002;52.676;6.432;2023-05-10T13:57:30;7.85;;;4.00;;
37087;SDS011;23002;52.676;6.432;2023-05-10T13:59:57;8.98;;;4.20;;
37087;SDS011;23002;52.676;6.432;2023-05-10T14:02:24;9.35;;;4.32;;
37087;SDS011;23002;52.676;6.432;2023-05-10T14:04:53;7.45;;;3.88;;
37087;SDS011;23002;52.676;6.432;2023-05-10T14:07:21;8.38;;;3.90;;
37087;SDS011;23002;52.676;6.432;2023-05-10T14:09:48;8.52;;;3.58;;
37087;SDS011;23002;52.676;6.432;2023-05-10T14:12:15;9.35;;;4.38;;
37087;SDS011;23002;52.676;6.432;2023-05-10T14:14:42;9.05;;;4.10;;
37087;SDS011;23002;52.676;6.432;2023-05-10T14:17:09;8.18;;;3.70;;
37087;SDS011;23002;52.676;6.432;2023-05-10T14:19:37;9.32;;;4.43;;
37087;SDS011;23002;52.676;6.432;2023-05-10T14:22:05;7.88;;;3.80;;
37087;SDS011;23002;52.676;6.432;2023-05-10T14:24:32;9.43;;;4.60;;
37087;SDS011;23002;52.676;6.432;2023-05-10T14:26:59;9.68;;;4.22;;
37087;SDS011;23002;52.676;6.432;2023-05-10T14:29:26;9.73;;;4.28;;
37087;SDS011;23002;52.676;6.432;2023-05-10T14:31:53;9.77;;;4.10;;
37087;SDS011;23002;52.676;6.432;2023-05-10T14:34:21;11.82;;;4.50;;
37087;SDS011;23002;52.676;6.432;2023-05-10T14:36:49;13.00;;;5.28;;
37087;SDS011;23002;52.676;6.432;2023-05-10T14:39:16;10.27;;;4.38;;
37087;SDS011;23002;52.676;6.432;2023-05-10T14:41:44;10.05;;;4.07;;
37087;SDS011;23002;52.676;6.432;2023-05-10T14:44:13;9.88;;;4.20;;
37087;SDS011;23002;52.676;6.432;2023-05-10T14:46:41;10.15;;;4.55;;
37087;SDS011;23002;52.676;6.432;2023-05-10T14:49:08;9.73;;;4.32;;
37087;SDS011;23002;52.676;6.432;2023-05-10T14:51:35;18.15;;;9.38;;
37087;SDS011;23002;52.676;6.432;2023-05-10T14:54:02;13.13;;;7.18;;
37087;SDS011;23002;52.676;6.432;2023-05-10T14:56:30;11.35;;;5.85;;
37087;SDS011;23002;52.676;6.432;2023-05-10T14:58:57;9.63;;;5.28;;
37087;SDS011;23002;52.676;6.432;2023-05-10T15:01:25;9.90;;;4.40;;
37087;SDS011;23002;52.676;6.432;2023-05-10T15:03:53;8.88;;;4.82;;
37087;SDS011;23002;52.676;6.432;2023-05-10T15:06:29;8.02;;;4.55;;
37087;SDS011;23002;52.676;6.432;2023-05-10T15:08:57;10.00;;;4.75;;
37087;SDS011;23002;52.676;6.432;2023-05-10T15:11:24;10.30;;;4.47;;
37087;SDS011;23002;52.676;6.432;2023-05-10T15:13:52;9.98;;;4.78;;
37087;SDS011;23002;52.676;6.432;2023-05-10T15:16:19;11.45;;;4.70;;
37087;SDS011;23002;52.676;6.432;2023-05-10T15:18:46;10.98;;;4.90;;
37087;SDS011;23002;52.676;6.432;2023-05-10T15:21:14;9.15;;;4.80;;
37087;SDS011;23002;52.676;6.432;2023-05-10T15:23:41;8.13;;;4.60;;
37087;SDS011;23002;52.676;6.432;2023-05-10T15:26:08;11.07;;;5.05;;
37087;SDS011;23002;52.676;6.432;2023-05-10T15:28:35;9.70;;;4.90;;
37087;SDS011;23002;52.676;6.432;2023-05-10T15:31:02;9.70;;;4.13;;